Flight Track Log - Related Links

Times and Time Zones

All times are in EDT time to prevent confusion due to time zone crossing. See the EMD26 flight status page for this flight to view local times or setup timezone preferences in your user account.

Time Position Orientation Groundspeed Altitude Reporting Facility
EDT Latitude Longitude Course Direction KTS MPH feet Rate Location/Type
Thu 06:35:43 PM 36.0153 -95.9925 194° South 138 159 1,300  Level Kansas City Center
Thu 06:37:08 PM 35.9703 -96.0061 194° South 122 140 3,400 1,315 Climbing Kansas City Center
Thu 06:38:09 PM 35.9589 -95.9689 111° Southeast 145 167 4,500 1,108 Climbing Kansas City Center
Thu 06:39:18 PM 35.9617 -95.9144 86° East 152 175 5,800 1,374 Climbing Kansas City Center
Thu 06:40:20 PM 35.9672 -95.8539 84° East 150 173 7,500 1,317 Climbing Kansas City Center
Thu 06:41:21 PM 35.9703 -95.8047 86° East 145 167 8,500 1,073 Climbing Kansas City Center
Thu 06:42:23 PM 35.9744 -95.7542 84° East 147 169 9,700 1,113 Climbing Kansas City Center
Thu 06:43:25 PM 35.9767 -95.7050 87° East 145 167 10,800 1,016 Climbing Kansas City Center
Thu 06:44:27 PM 35.9797 -95.6569 85° East 142 163 11,800 919 Climbing Kansas City Center
Thu 06:45:29 PM 35.9833 -95.6075 85° East 143 165 12,700 823 Climbing Kansas City Center
Thu 06:46:31 PM 35.9864 -95.5528 86° East 153 176 13,500 774 Climbing Kansas City Center
Thu 06:47:33 PM 35.9919 -95.4811 85° East 169 194 14,300 774 Climbing Kansas City Center
Thu 06:48:35 PM 35.9950 -95.4206 86° East 175 201 15,100 683 Climbing Kansas City Center
Thu 06:49:36 PM 35.9981 -95.3608 86° East 175 201 15,700 634 Climbing Kansas City Center
Thu 06:50:38 PM 36.0047 -95.3008 82° East 176 203 16,400 629 Climbing Kansas City Center
Thu 06:51:40 PM 36.0178 -95.2411 75° East 178 205 17,000 532 Climbing Kansas City Center
Thu 06:52:42 PM 36.0286 -95.1797 78° East 181 208 17,500 581 Climbing Kansas City Center
Thu 06:53:44 PM 36.0406 -95.1008 79° East 192 221 18,200 726 Climbing Kansas City Center
Thu 06:54:46 PM 36.0531 -95.0408 76° East 185 213 19,000 732 Climbing Kansas City Center
Thu 06:55:47 PM 36.0642 -94.9864 76° East 171 197 19,700 537 Climbing Kansas City Center
Thu 06:56:49 PM 36.0714 -94.9289 81° East 168 193 20,100 444 Climbing Kansas City Center
Thu 06:58:02 PM 36.0833 -94.8644 77° East 172 198 20,700 406 Climbing Memphis Center
Thu 06:59:02 PM 36.0961 -94.8033 75° East 172 198 21,000 149 Climbing Memphis Center
Thu 07:00:03 PM 36.1044 -94.7397 81° East 172 198 21,000  Level Memphis Center
Thu 07:01:03 PM 36.1153 -94.6708 79° East 190 219 21,000  Level Memphis Center
Thu 07:02:03 PM 36.1281 -94.5994 77° East 202 232 21,000  Level Memphis Center
Thu 07:03:03 PM 36.1411 -94.5283 77° East 207 238 21,000  Level Memphis Center
Thu 07:04:03 PM 36.1517 -94.4594 79° East 207 238 21,000  Level Memphis Center
Thu 07:05:03 PM 36.1667 -94.3856 76° East 207 238 21,000  Level Memphis Center
Thu 07:06:03 PM 36.1772 -94.3142 80° East 207 238 21,000  Level Memphis Center
Thu 07:07:03 PM 36.1900 -94.2403 78° East 213 245 21,000  Level Memphis Center
Thu 07:08:03 PM 36.2025 -94.1686 78° East 213 245 21,000  Level Memphis Center
Thu 07:09:03 PM 36.2153 -94.0947 78° East 218 251 21,000  Level Memphis Center
Thu 07:10:03 PM 36.2256 -94.0258 80° East 218 251 21,000  Level Memphis Center
Thu 07:11:03 PM 36.2383 -93.9517 78° East 218 251 21,000  Level Memphis Center
Thu 07:12:03 PM 36.2511 -93.8700 79° East 218 251 21,000  Level Memphis Center
Thu 07:13:03 PM 36.2633 -93.7983 78° East 218 251 21,000  Level Memphis Center
Thu 07:14:03 PM 36.2756 -93.7397 75° East 218 251 21,000  Level Memphis Center
Thu 07:15:03 PM 36.2819 -93.6550 85° East 218 251 21,000  Level Memphis Center
Thu 07:16:03 PM 36.2964 -93.5808 76° East 218 251 21,000  Level Memphis Center
Thu 07:17:03 PM 36.3086 -93.5042 79° East 218 251 21,000  Level Memphis Center
Thu 07:18:03 PM 36.3189 -93.4272 81° East 218 251 21,000  Level Memphis Center
Thu 07:19:02 PM 36.3311 -93.3531 78° East 218 251 21,000  Level Memphis Center
Thu 07:20:03 PM 36.3433 -93.2761 79° East 218 251 21,000  Level Memphis Center
Thu 07:21:02 PM 36.3575 -93.2044 76° East 218 251 21,000  Level Memphis Center
Thu 07:22:03 PM 36.3678 -93.1275 81° East 218 251 21,000  Level Memphis Center
Thu 07:23:03 PM 36.3797 -93.0506 79° East 218 251 21,000  Level Memphis Center
Thu 07:24:02 PM 36.3917 -92.9764 79° East 218 251 21,000  Level Memphis Center
Thu 07:25:03 PM 36.4036 -92.9019 79° East 218 251 21,000  Level Memphis Center
Thu 07:26:03 PM 36.4136 -92.8222 81° East 218 251 21,000 -350 Level Memphis Center
Thu 07:27:03 PM 36.4275 -92.7478 77° East 218 251 20,300 -1,050 Descending Memphis Center
Thu 07:28:03 PM 36.4419 -92.6553 79° East 242 278 18,900 -1,450 Descending Memphis Center
Thu 07:29:03 PM 36.4561 -92.5628 79° East 256 295 17,400 -1,500 Descending Memphis Center
Thu 07:30:03 PM 36.4661 -92.4703 82° East 261 300 15,900 -1,100 Descending Memphis Center
Thu 07:31:03 PM 36.4842 -92.3881 75° East 256 295 15,200 -450 Descending Memphis Center
Thu 07:32:03 PM 36.4981 -92.3008 79° East 256 295 15,000 -50 Descending Memphis Center
Thu 07:33:03 PM 36.5075 -92.2183 82° East 251 289 15,100 50 Climbing Memphis Center
Thu 07:34:03 PM 36.5211 -92.1361 78° East 251 289 15,100  Level Memphis Center
Thu 07:35:03 PM 36.5350 -92.0536 78° East 246 283 15,100  Level Memphis Center
Thu 07:36:03 PM 36.5464 -91.9714 80° East 240 276 15,100  Level Memphis Center
Thu 07:37:03 PM 36.5558 -91.8914 82° East 235 270 15,100 -600 Level Memphis Center
Thu 07:38:03 PM 36.5714 -91.8011 78° East 243 280 13,900 -1,150 Descending Memphis Center
Thu 07:39:03 PM 36.5828 -91.7136 81° East 255 293 12,800 -1,250 Descending Memphis Center
Thu 07:40:03 PM 36.5961 -91.6258 79° East 255 293 11,400 -1,311 Descending Memphis Center
Thu 07:41:02 PM 36.6053 -91.5433 82° East 255 293 10,200 -1,150 Descending Memphis Center
Thu 07:42:03 PM 36.6186 -91.4531 80° East 256 295 9,100 -1,041 Descending Memphis Center
Thu 07:43:03 PM 36.6339 -91.3706 77° East 251 289 8,100 -1,000 Descending Memphis Center
Thu 07:44:03 PM 36.6450 -91.2881 80° East 246 283 7,100 -900 Descending Memphis Center
Thu 07:45:03 PM 36.6539 -91.2078 82° East 239 275 6,300 -857 Descending Memphis Center
Thu 07:46:02 PM 36.6669 -91.1253 79° East 234 269 5,400 -650 Descending Memphis Center
Thu 07:47:03 PM 36.6694 -91.0553 87° East 229 264 5,000 -393 Descending Memphis Center

Login

Don't have an account? Register now (free) for customized features, flight alerts, and more!